Fairchance, Pennsylvania
Current Conditions -  °F | °C
As of 1:53 PM on Sunday 23 Nov 2014 (Local Time) from KMGW Reporting Station
Clear Clear  
Wind Chill: 18°   Ceiling: Unl
Heat Index: 18°   Visibility: 10mi
Dew Point:   Wind: 9mph
Humidity: 48%   Direction: 140°SE
Pressure: 29.95"   Gusts: NA
Location:  39.82°N, 79.75°W
Report Text: KMGW 231853Z 14008KT 10SM CLR 18/07 A2995 RMK AO2 SLP139 T01780067
Loading
Personal Weather Stations






























Interactive Weather Map New forecast layout! Learn more

10-Day Weather Forecast

Advertisements
Track Severe Weather on mobile